sensor_id;sensor_type;location;lat;lon;timestamp;P1;durP1;ratioP1;P2;durP2;ratioP2
43994;SDS011;51687;52.160;5.298;2023-11-21T00:02:17;16.45;;;12.55;;
43994;SDS011;51687;52.160;5.298;2023-11-21T00:04:44;20.30;;;13.07;;
43994;SDS011;51687;52.160;5.298;2023-11-21T00:07:12;13.57;;;12.15;;
43994;SDS011;51687;52.160;5.298;2023-11-21T00:09:39;15.70;;;12.80;;
43994;SDS011;51687;52.160;5.298;2023-11-21T00:12:05;16.05;;;11.85;;
43994;SDS011;51687;52.160;5.298;2023-11-21T00:14:36;14.73;;;11.95;;
43994;SDS011;51687;52.160;5.298;2023-11-21T00:17:04;17.38;;;13.38;;
43994;SDS011;51687;52.160;5.298;2023-11-21T00:19:32;12.35;;;11.23;;
43994;SDS011;51687;52.160;5.298;2023-11-21T00:22:02;13.50;;;12.00;;
43994;SDS011;51687;52.160;5.298;2023-11-21T00:24:29;12.77;;;11.57;;
43994;SDS011;51687;52.160;5.298;2023-11-21T00:26:56;19.65;;;12.18;;
43994;SDS011;51687;52.160;5.298;2023-11-21T00:29:23;13.17;;;10.80;;
43994;SDS011;51687;52.160;5.298;2023-11-21T00:31:50;10.43;;;9.57;;
43994;SDS011;51687;52.160;5.298;2023-11-21T00:34:18;11.38;;;10.13;;
43994;SDS011;51687;52.160;5.298;2023-11-21T00:36:44;11.90;;;10.30;;
43994;SDS011;51687;52.160;5.298;2023-11-21T00:39:11;16.23;;;9.88;;
43994;SDS011;51687;52.160;5.298;2023-11-21T00:41:39;11.95;;;10.75;;
43994;SDS011;51687;52.160;5.298;2023-11-21T00:44:06;12.63;;;10.27;;
43994;SDS011;51687;52.160;5.298;2023-11-21T00:46:33;12.65;;;11.15;;
43994;SDS011;51687;52.160;5.298;2023-11-21T00:49:00;12.43;;;11.23;;
43994;SDS011;51687;52.160;5.298;2023-11-21T00:51:27;16.23;;;12.25;;
43994;SDS011;51687;52.160;5.298;2023-11-21T00:53:53;14.60;;;12.77;;
43994;SDS011;51687;52.160;5.298;2023-11-21T00:56:20;11.73;;;10.52;;
43994;SDS011;51687;52.160;5.298;2023-11-21T00:58:47;13.80;;;12.40;;
43994;SDS011;51687;52.160;5.298;2023-11-21T01:01:18;15.02;;;12.18;;
43994;SDS011;51687;52.160;5.298;2023-11-21T01:03:46;13.40;;;12.10;;
43994;SDS011;51687;52.160;5.298;2023-11-21T01:06:13;15.60;;;12.50;;
43994;SDS011;51687;52.160;5.298;2023-11-21T01:11:09;12.30;;;11.10;;
43994;SDS011;51687;52.160;5.298;2023-11-21T01:13:39;14.10;;;12.10;;
43994;SDS011;51687;52.160;5.298;2023-11-21T01:16:06;15.17;;;11.87;;
43994;SDS011;51687;52.160;5.298;2023-11-21T01:18:34;18.13;;;11.40;;
43994;SDS011;51687;52.160;5.298;2023-11-21T01:21:01;14.85;;;10.68;;
43994;SDS011;51687;52.160;5.298;2023-11-21T01:23:28;19.08;;;11.25;;
43994;SDS011;51687;52.160;5.298;2023-11-21T01:25:57;14.80;;;11.68;;
43994;SDS011;51687;52.160;5.298;2023-11-21T01:28:24;12.48;;;11.10;;
43994;SDS011;51687;52.160;5.298;2023-11-21T01:30:52;15.25;;;11.85;;
43994;SDS011;51687;52.160;5.298;2023-11-21T01:33:22;17.42;;;10.90;;
43994;SDS011;51687;52.160;5.298;2023-11-21T01:35:51;16.52;;;11.40;;
43994;SDS011;51687;52.160;5.298;2023-11-21T01:38:22;14.75;;;10.90;;
43994;SDS011;51687;52.160;5.298;2023-11-21T01:40:49;12.48;;;11.02;;
43994;SDS011;51687;52.160;5.298;2023-11-21T01:43:16;18.63;;;11.00;;
43994;SDS011;51687;52.160;5.298;2023-11-21T01:45:43;11.27;;;10.23;;
43994;SDS011;51687;52.160;5.298;2023-11-21T01:48:11;11.57;;;10.10;;
43994;SDS011;51687;52.160;5.298;2023-11-21T01:50:39;12.50;;;10.50;;
43994;SDS011;51687;52.160;5.298;2023-11-21T01:53:07;18.17;;;10.48;;
43994;SDS011;51687;52.160;5.298;2023-11-21T01:55:34;16.90;;;11.05;;
43994;SDS011;51687;52.160;5.298;2023-11-21T01:58:01;15.40;;;11.13;;
43994;SDS011;51687;52.160;5.298;2023-11-21T02:00:28;14.48;;;11.15;;
43994;SDS011;51687;52.160;5.298;2023-11-21T02:02:56;19.55;;;11.18;;
43994;SDS011;51687;52.160;5.298;2023-11-21T02:05:23;19.38;;;11.75;;
43994;SDS011;51687;52.160;5.298;2023-11-21T02:07:52;13.75;;;10.73;;
43994;SDS011;51687;52.160;5.298;2023-11-21T02:10:19;17.92;;;10.63;;
43994;SDS011;51687;52.160;5.298;2023-11-21T02:12:50;21.70;;;11.27;;
43994;SDS011;51687;52.160;5.298;2023-11-21T02:15:17;15.25;;;10.80;;
43994;SDS011;51687;52.160;5.298;2023-11-21T02:17:49;15.95;;;11.25;;
43994;SDS011;51687;52.160;5.298;2023-11-21T02:20:21;15.27;;;10.95;;
43994;SDS011;51687;52.160;5.298;2023-11-21T02:22:52;12.70;;;10.30;;
43994;SDS011;51687;52.160;5.298;2023-11-21T02:27:57;12.50;;;10.63;;
43994;SDS011;51687;52.160;5.298;2023-11-21T02:30:26;11.77;;;10.43;;
43994;SDS011;51687;52.160;5.298;2023-11-21T02:32:54;11.55;;;10.40;;
43994;SDS011;51687;52.160;5.298;2023-11-21T02:35:23;17.27;;;9.90;;
43994;SDS011;51687;52.160;5.298;2023-11-21T02:40:19;12.10;;;10.68;;
43994;SDS011;51687;52.160;5.298;2023-11-21T02:42:47;17.23;;;10.90;;
43994;SDS011;51687;52.160;5.298;2023-11-21T02:45:14;12.95;;;9.80;;
43994;SDS011;51687;52.160;5.298;2023-11-21T02:47:47;14.77;;;10.23;;
43994;SDS011;51687;52.160;5.298;2023-11-21T02:50:15;9.77;;;8.82;;
43994;SDS011;51687;52.160;5.298;2023-11-21T02:52:46;11.15;;;9.98;;
43994;SDS011;51687;52.160;5.298;2023-11-21T02:55:13;17.55;;;11.07;;
43994;SDS011;51687;52.160;5.298;2023-11-21T02:57:41;16.25;;;10.35;;
43994;SDS011;51687;52.160;5.298;2023-11-21T03:00:08;19.17;;;11.25;;
43994;SDS011;51687;52.160;5.298;2023-11-21T03:02:41;26.27;;;12.07;;
43994;SDS011;51687;52.160;5.298;2023-11-21T03:05:09;17.48;;;11.38;;
43994;SDS011;51687;52.160;5.298;2023-11-21T03:07:37;16.83;;;11.85;;
43994;SDS011;51687;52.160;5.298;2023-11-21T03:10:04;15.32;;;10.68;;
43994;SDS011;51687;52.160;5.298;2023-11-21T03:12:32;12.70;;;11.37;;
43994;SDS011;51687;52.160;5.298;2023-11-21T03:14:59;18.80;;;12.27;;
43994;SDS011;51687;52.160;5.298;2023-11-21T03:19:55;20.45;;;12.57;;
43994;SDS011;51687;52.160;5.298;2023-11-21T03:22:23;21.80;;;11.75;;
43994;SDS011;51687;52.160;5.298;2023-11-21T03:24:50;17.33;;;12.20;;
43994;SDS011;51687;52.160;5.298;2023-11-21T03:27:18;18.63;;;11.73;;
43994;SDS011;51687;52.160;5.298;2023-11-21T03:29:45;12.77;;;11.25;;
43994;SDS011;51687;52.160;5.298;2023-11-21T03:32:12;12.85;;;11.13;;
43994;SDS011;51687;52.160;5.298;2023-11-21T03:34:52;12.63;;;11.25;;
43994;SDS011;51687;52.160;5.298;2023-11-21T03:37:21;16.58;;;11.27;;
43994;SDS011;51687;52.160;5.298;2023-11-21T03:39:48;15.55;;;11.45;;
43994;SDS011;51687;52.160;5.298;2023-11-21T03:42:16;24.38;;;11.02;;
43994;SDS011;51687;52.160;5.298;2023-11-21T03:44:43;13.63;;;11.40;;
43994;SDS011;51687;52.160;5.298;2023-11-21T03:47:10;11.68;;;10.38;;
43994;SDS011;51687;52.160;5.298;2023-11-21T03:49:37;14.93;;;10.82;;
43994;SDS011;51687;52.160;5.298;2023-11-21T03:52:05;17.25;;;9.82;;
43994;SDS011;51687;52.160;5.298;2023-11-21T03:54:34;13.27;;;10.27;;
43994;SDS011;51687;52.160;5.298;2023-11-21T03:57:02;13.88;;;9.90;;
43994;SDS011;51687;52.160;5.298;2023-11-21T03:59:29;19.73;;;10.52;;
43994;SDS011;51687;52.160;5.298;2023-11-21T04:01:56;18.95;;;10.88;;
43994;SDS011;51687;52.160;5.298;2023-11-21T04:04:23;18.90;;;11.27;;
43994;SDS011;51687;52.160;5.298;2023-11-21T04:06:50;14.73;;;9.55;;
43994;SDS011;51687;52.160;5.298;2023-11-21T04:09:18;18.67;;;11.80;;
43994;SDS011;51687;52.160;5.298;2023-11-21T04:11:45;16.85;;;11.63;;
43994;SDS011;51687;52.160;5.298;2023-11-21T04:14:13;16.08;;;11.43;;
43994;SDS011;51687;52.160;5.298;2023-11-21T04:16:40;16.50;;;12.07;;
43994;SDS011;51687;52.160;5.298;2023-11-21T04:19:07;20.50;;;12.05;;
43994;SDS011;51687;52.160;5.298;2023-11-21T04:21:36;18.25;;;11.60;;
43994;SDS011;51687;52.160;5.298;2023-11-21T04:24:04;14.93;;;11.27;;
43994;SDS011;51687;52.160;5.298;2023-11-21T04:26:32;14.07;;;11.57;;
43994;SDS011;51687;52.160;5.298;2023-11-21T04:28:59;12.70;;;11.32;;
43994;SDS011;51687;52.160;5.298;2023-11-21T04:31:25;21.77;;;11.93;;
43994;SDS011;51687;52.160;5.298;2023-11-21T04:33:52;16.15;;;11.82;;
43994;SDS011;51687;52.160;5.298;2023-11-21T04:36:19;13.90;;;11.82;;
43994;SDS011;51687;52.160;5.298;2023-11-21T04:38:46;16.13;;;11.52;;
43994;SDS011;51687;52.160;5.298;2023-11-21T04:41:13;21.65;;;12.07;;
43994;SDS011;51687;52.160;5.298;2023-11-21T04:43:39;28.90;;;11.02;;
43994;SDS011;51687;52.160;5.298;2023-11-21T04:46:06;21.85;;;11.65;;
43994;SDS011;51687;52.160;5.298;2023-11-21T04:48:33;18.42;;;10.65;;
43994;SDS011;51687;52.160;5.298;2023-11-21T04:50:59;20.42;;;11.27;;
43994;SDS011;51687;52.160;5.298;2023-11-21T04:53:26;17.77;;;12.13;;
43994;SDS011;51687;52.160;5.298;2023-11-21T04:55:53;23.83;;;11.60;;
43994;SDS011;51687;52.160;5.298;2023-11-21T04:58:20;22.70;;;12.50;;
43994;SDS011;51687;52.160;5.298;2023-11-21T05:00:47;14.00;;;11.55;;
43994;SDS011;51687;52.160;5.298;2023-11-21T05:03:14;20.58;;;12.07;;
43994;SDS011;51687;52.160;5.298;2023-11-21T05:05:41;25.52;;;12.80;;
43994;SDS011;51687;52.160;5.298;2023-11-21T05:08:08;19.52;;;12.30;;
43994;SDS011;51687;52.160;5.298;2023-11-21T05:10:34;14.60;;;11.75;;
43994;SDS011;51687;52.160;5.298;2023-11-21T05:13:04;25.58;;;12.05;;
43994;SDS011;51687;52.160;5.298;2023-11-21T05:15:36;17.60;;;12.05;;
43994;SDS011;51687;52.160;5.298;2023-11-21T05:18:03;18.03;;;12.07;;
43994;SDS011;51687;52.160;5.298;2023-11-21T05:20:31;35.33;;;11.02;;
43994;SDS011;51687;52.160;5.298;2023-11-21T05:22:59;14.23;;;11.55;;
43994;SDS011;51687;52.160;5.298;2023-11-21T05:25:26;22.83;;;12.70;;
43994;SDS011;51687;52.160;5.298;2023-11-21T05:27:53;20.13;;;13.27;;
43994;SDS011;51687;52.160;5.298;2023-11-21T05:30:21;20.03;;;12.23;;
43994;SDS011;51687;52.160;5.298;2023-11-21T05:32:49;17.38;;;11.80;;
43994;SDS011;51687;52.160;5.298;2023-11-21T05:35:16;16.60;;;11.57;;
43994;SDS011;51687;52.160;5.298;2023-11-21T05:37:44;17.33;;;11.82;;
43994;SDS011;51687;52.160;5.298;2023-11-21T05:40:12;16.33;;;12.60;;
43994;SDS011;51687;52.160;5.298;2023-11-21T05:42:40;32.15;;;12.32;;
43994;SDS011;51687;52.160;5.298;2023-11-21T05:45:07;23.33;;;12.82;;
43994;SDS011;51687;52.160;5.298;2023-11-21T05:47:36;21.70;;;11.98;;
43994;SDS011;51687;52.160;5.298;2023-11-21T05:50:07;26.77;;;12.45;;
43994;SDS011;51687;52.160;5.298;2023-11-21T05:52:41;14.40;;;12.63;;
43994;SDS011;51687;52.160;5.298;2023-11-21T05:55:12;24.92;;;12.88;;
43994;SDS011;51687;52.160;5.298;2023-11-21T05:57:40;21.80;;;11.13;;
43994;SDS011;51687;52.160;5.298;2023-11-21T06:05:24;22.17;;;10.93;;
43994;SDS011;51687;52.160;5.298;2023-11-21T06:07:52;18.30;;;12.43;;
43994;SDS011;51687;52.160;5.298;2023-11-21T06:10:20;16.33;;;11.20;;
43994;SDS011;51687;52.160;5.298;2023-11-21T06:12:48;24.10;;;11.25;;
43994;SDS011;51687;52.160;5.298;2023-11-21T06:15:15;30.35;;;12.15;;
43994;SDS011;51687;52.160;5.298;2023-11-21T06:17:42;19.45;;;11.25;;
43994;SDS011;51687;52.160;5.298;2023-11-21T06:20:11;17.60;;;11.35;;
43994;SDS011;51687;52.160;5.298;2023-11-21T06:22:41;24.52;;;11.88;;
43994;SDS011;51687;52.160;5.298;2023-11-21T06:25:09;22.02;;;10.60;;
43994;SDS011;51687;52.160;5.298;2023-11-21T06:27:38;34.92;;;12.63;;
43994;SDS011;51687;52.160;5.298;2023-11-21T06:30:06;17.92;;;9.45;;
43994;SDS011;51687;52.160;5.298;2023-11-21T06:32:35;9.65;;;8.40;;
43994;SDS011;51687;52.160;5.298;2023-11-21T06:35:03;15.23;;;8.65;;
43994;SDS011;51687;52.160;5.298;2023-11-21T06:37:31;13.45;;;8.38;;
43994;SDS011;51687;52.160;5.298;2023-11-21T06:39:59;13.63;;;8.88;;
43994;SDS011;51687;52.160;5.298;2023-11-21T06:42:26;14.70;;;9.20;;
43994;SDS011;51687;52.160;5.298;2023-11-21T06:47:25;12.20;;;8.32;;
43994;SDS011;51687;52.160;5.298;2023-11-21T06:49:54;13.15;;;8.25;;
43994;SDS011;51687;52.160;5.298;2023-11-21T06:52:21;16.10;;;9.00;;
43994;SDS011;51687;52.160;5.298;2023-11-21T06:54:48;13.10;;;7.53;;
43994;SDS011;51687;52.160;5.298;2023-11-21T06:57:16;16.25;;;8.75;;
43994;SDS011;51687;52.160;5.298;2023-11-21T06:59:43;18.63;;;9.45;;
43994;SDS011;51687;52.160;5.298;2023-11-21T07:02:10;15.88;;;9.82;;
43994;SDS011;51687;52.160;5.298;2023-11-21T07:04:38;13.20;;;9.38;;
43994;SDS011;51687;52.160;5.298;2023-11-21T07:07:06;26.65;;;10.10;;
43994;SDS011;51687;52.160;5.298;2023-11-21T07:09:33;19.13;;;10.63;;
43994;SDS011;51687;52.160;5.298;2023-11-21T07:12:01;13.98;;;9.40;;
43994;SDS011;51687;52.160;5.298;2023-11-21T07:14:30;14.63;;;8.10;;
43994;SDS011;51687;52.160;5.298;2023-11-21T07:16:58;20.65;;;8.93;;
43994;SDS011;51687;52.160;5.298;2023-11-21T07:19:25;11.80;;;7.90;;
43994;SDS011;51687;52.160;5.298;2023-11-21T07:21:52;11.70;;;8.45;;
43994;SDS011;51687;52.160;5.298;2023-11-21T07:24:19;11.45;;;7.28;;
43994;SDS011;51687;52.160;5.298;2023-11-21T07:26:50;9.27;;;8.48;;
43994;SDS011;51687;52.160;5.298;2023-11-21T07:29:17;13.48;;;7.28;;
43994;SDS011;51687;52.160;5.298;2023-11-21T07:31:44;8.88;;;8.02;;
43994;SDS011;51687;52.160;5.298;2023-11-21T07:34:11;21.10;;;8.57;;
43994;SDS011;51687;52.160;5.298;2023-11-21T07:36:39;10.68;;;8.88;;
43994;SDS011;51687;52.160;5.298;2023-11-21T07:39:06;12.02;;;10.05;;
43994;SDS011;51687;52.160;5.298;2023-11-21T07:41:33;22.63;;;10.57;;
43994;SDS011;51687;52.160;5.298;2023-11-21T07:44:00;13.68;;;9.82;;
43994;SDS011;51687;52.160;5.298;2023-11-21T07:46:27;18.10;;;10.82;;
43994;SDS011;51687;52.160;5.298;2023-11-21T07:48:55;11.73;;;10.45;;
43994;SDS011;51687;52.160;5.298;2023-11-21T07:51:21;16.50;;;8.68;;
43994;SDS011;51687;52.160;5.298;2023-11-21T07:53:48;13.88;;;10.18;;
43994;SDS011;51687;52.160;5.298;2023-11-21T07:56:16;11.52;;;10.15;;
43994;SDS011;51687;52.160;5.298;2023-11-21T07:58:42;9.70;;;8.23;;
43994;SDS011;51687;52.160;5.298;2023-11-21T08:01:10;13.18;;;9.38;;
43994;SDS011;51687;52.160;5.298;2023-11-21T08:03:38;10.13;;;7.82;;
43994;SDS011;51687;52.160;5.298;2023-11-21T08:06:05;8.23;;;5.55;;
43994;SDS011;51687;52.160;5.298;2023-11-21T08:08:32;8.30;;;6.47;;
43994;SDS011;51687;52.160;5.298;2023-11-21T08:10:59;11.65;;;6.72;;
43994;SDS011;51687;52.160;5.298;2023-11-21T08:13:28;15.00;;;7.13;;
43994;SDS011;51687;52.160;5.298;2023-11-21T08:15:57;17.98;;;7.38;;
43994;SDS011;51687;52.160;5.298;2023-11-21T08:18:28;9.35;;;6.40;;
43994;SDS011;51687;52.160;5.298;2023-11-21T08:20:56;8.35;;;6.20;;
43994;SDS011;51687;52.160;5.298;2023-11-21T08:23:23;7.97;;;6.53;;
43994;SDS011;51687;52.160;5.298;2023-11-21T08:25:53;9.02;;;6.90;;
43994;SDS011;51687;52.160;5.298;2023-11-21T08:28:20;8.07;;;6.05;;
43994;SDS011;51687;52.160;5.298;2023-11-21T08:30:52;12.60;;;7.60;;
43994;SDS011;51687;52.160;5.298;2023-11-21T08:33:20;11.55;;;7.70;;
43994;SDS011;51687;52.160;5.298;2023-11-21T08:35:47;7.80;;;7.00;;
43994;SDS011;51687;52.160;5.298;2023-11-21T08:38:15;8.00;;;7.22;;
43994;SDS011;51687;52.160;5.298;2023-11-21T08:40:41;9.75;;;8.85;;
43994;SDS011;51687;52.160;5.298;2023-11-21T08:43:08;10.30;;;7.93;;
43994;SDS011;51687;52.160;5.298;2023-11-21T08:45:35;8.63;;;7.82;;
43994;SDS011;51687;52.160;5.298;2023-11-21T08:48:02;12.85;;;8.43;;
43994;SDS011;51687;52.160;5.298;2023-11-21T08:50:29;10.25;;;9.23;;
43994;SDS011;51687;52.160;5.298;2023-11-21T08:52:56;8.10;;;7.30;;
43994;SDS011;51687;52.160;5.298;2023-11-21T08:55:23;9.82;;;8.40;;
43994;SDS011;51687;52.160;5.298;2023-11-21T08:57:50;10.77;;;8.95;;
43994;SDS011;51687;52.160;5.298;2023-11-21T09:00:17;10.32;;;9.35;;
43994;SDS011;51687;52.160;5.298;2023-11-21T09:02:45;10.32;;;9.35;;
43994;SDS011;51687;52.160;5.298;2023-11-21T09:05:12;14.70;;;10.25;;
43994;SDS011;51687;52.160;5.298;2023-11-21T09:07:40;11.10;;;10.27;;
43994;SDS011;51687;52.160;5.298;2023-11-21T09:10:08;10.45;;;9.55;;
43994;SDS011;51687;52.160;5.298;2023-11-21T09:12:36;9.55;;;8.65;;
43994;SDS011;51687;52.160;5.298;2023-11-21T09:15:04;11.25;;;10.35;;
43994;SDS011;51687;52.160;5.298;2023-11-21T09:17:32;9.43;;;8.63;;
43994;SDS011;51687;52.160;5.298;2023-11-21T09:20:00;10.38;;;9.32;;
43994;SDS011;51687;52.160;5.298;2023-11-21T09:22:30;10.23;;;9.25;;
43994;SDS011;51687;52.160;5.298;2023-11-21T09:24:58;9.88;;;8.88;;
43994;SDS011;51687;52.160;5.298;2023-11-21T09:27:25;9.15;;;8.35;;
43994;SDS011;51687;52.160;5.298;2023-11-21T09:29:54;9.60;;;8.82;;
43994;SDS011;51687;52.160;5.298;2023-11-21T09:32:21;9.15;;;8.40;;
43994;SDS011;51687;52.160;5.298;2023-11-21T09:34:48;8.90;;;8.10;;
43994;SDS011;51687;52.160;5.298;2023-11-21T09:37:16;8.82;;;8.02;;
43994;SDS011;51687;52.160;5.298;2023-11-21T09:39:43;8.80;;;8.10;;
43994;SDS011;51687;52.160;5.298;2023-11-21T09:42:11;8.45;;;7.20;;
43994;SDS011;51687;52.160;5.298;2023-11-21T09:44:45;8.65;;;7.82;;
43994;SDS011;51687;52.160;5.298;2023-11-21T09:47:15;9.27;;;8.38;;
43994;SDS011;51687;52.160;5.298;2023-11-21T09:49:45;8.93;;;8.15;;
43994;SDS011;51687;52.160;5.298;2023-11-21T09:52:32;8.93;;;8.32;;
43994;SDS011;51687;52.160;5.298;2023-11-21T09:55:00;8.02;;;7.43;;
43994;SDS011;51687;52.160;5.298;2023-11-21T09:57:28;8.77;;;8.02;;
43994;SDS011;51687;52.160;5.298;2023-11-21T09:59:56;8.15;;;7.45;;
43994;SDS011;51687;52.160;5.298;2023-11-21T10:02:26;8.00;;;7.20;;
43994;SDS011;51687;52.160;5.298;2023-11-21T10:04:59;7.75;;;7.05;;
43994;SDS011;51687;52.160;5.298;2023-11-21T10:07:27;7.18;;;6.47;;
43994;SDS011;51687;52.160;5.298;2023-11-21T10:09:55;7.53;;;6.93;;
43994;SDS011;51687;52.160;5.298;2023-11-21T10:12:23;7.13;;;6.45;;
43994;SDS011;51687;52.160;5.298;2023-11-21T10:14:51;6.32;;;5.72;;
43994;SDS011;51687;52.160;5.298;2023-11-21T10:17:20;6.82;;;6.20;;
43994;SDS011;51687;52.160;5.298;2023-11-21T10:19:49;6.70;;;6.10;;
43994;SDS011;51687;52.160;5.298;2023-11-21T10:24:45;6.38;;;5.00;;
43994;SDS011;51687;52.160;5.298;2023-11-21T10:27:19;5.78;;;5.25;;
43994;SDS011;51687;52.160;5.298;2023-11-21T10:29:46;5.82;;;5.22;;
43994;SDS011;51687;52.160;5.298;2023-11-21T10:32:12;5.93;;;5.43;;
43994;SDS011;51687;52.160;5.298;2023-11-21T10:34:39;7.68;;;5.68;;
43994;SDS011;51687;52.160;5.298;2023-11-21T10:37:10;6.13;;;5.63;;
43994;SDS011;51687;52.160;5.298;2023-11-21T10:39:38;7.43;;;6.72;;
43994;SDS011;51687;52.160;5.298;2023-11-21T10:42:07;8.47;;;7.57;;
43994;SDS011;51687;52.160;5.298;2023-11-21T10:47:01;7.78;;;6.97;;
43994;SDS011;51687;52.160;5.298;2023-11-21T10:49:29;9.27;;;8.40;;
43994;SDS011;51687;52.160;5.298;2023-11-21T10:51:56;9.02;;;8.13;;
43994;SDS011;51687;52.160;5.298;2023-11-21T10:54:23;8.75;;;7.95;;
43994;SDS011;51687;52.160;5.298;2023-11-21T10:56:57;9.13;;;8.23;;
43994;SDS011;51687;52.160;5.298;2023-11-21T10:59:29;9.10;;;8.23;;
43994;SDS011;51687;52.160;5.298;2023-11-21T11:01:58;9.57;;;8.65;;
43994;SDS011;51687;52.160;5.298;2023-11-21T11:04:27;9.30;;;8.10;;
43994;SDS011;51687;52.160;5.298;2023-11-21T11:06:55;9.38;;;8.57;;
43994;SDS011;51687;52.160;5.298;2023-11-21T11:09:30;9.45;;;8.63;;
43994;SDS011;51687;52.160;5.298;2023-11-21T11:12:03;10.82;;;9.93;;
43994;SDS011;51687;52.160;5.298;2023-11-21T11:14:31;8.43;;;7.63;;
43994;SDS011;51687;52.160;5.298;2023-11-21T11:16:59;10.97;;;9.93;;
43994;SDS011;51687;52.160;5.298;2023-11-21T11:19:28;10.98;;;9.93;;
43994;SDS011;51687;52.160;5.298;2023-11-21T11:30:11;10.45;;;9.55;;
43994;SDS011;51687;52.160;5.298;2023-11-21T11:38:23;16.70;;;11.07;;
43994;SDS011;51687;52.160;5.298;2023-11-21T11:43:25;11.00;;;10.00;;
43994;SDS011;51687;52.160;5.298;2023-11-21T11:45:56;11.63;;;10.50;;
43994;SDS011;51687;52.160;5.298;2023-11-21T11:48:25;11.38;;;10.23;;
43994;SDS011;51687;52.160;5.298;2023-11-21T11:51:12;12.82;;;10.40;;
43994;SDS011;51687;52.160;5.298;2023-11-21T11:53:48;10.95;;;9.95;;
43994;SDS011;51687;52.160;5.298;2023-11-21T11:56:28;10.50;;;9.60;;
43994;SDS011;51687;52.160;5.298;2023-11-21T11:58:58;9.75;;;8.85;;
43994;SDS011;51687;52.160;5.298;2023-11-21T12:01:26;10.80;;;9.73;;
43994;SDS011;51687;52.160;5.298;2023-11-21T12:06:46;11.30;;;10.30;;
43994;SDS011;51687;52.160;5.298;2023-11-21T12:09:23;10.48;;;9.68;;
43994;SDS011;51687;52.160;5.298;2023-11-21T12:11:52;12.25;;;11.05;;
43994;SDS011;51687;52.160;5.298;2023-11-21T12:14:22;13.43;;;12.13;;
43994;SDS011;51687;52.160;5.298;2023-11-21T12:16:50;12.38;;;11.15;;
43994;SDS011;51687;52.160;5.298;2023-11-21T12:19:18;14.85;;;13.45;;
43994;SDS011;51687;52.160;5.298;2023-11-21T12:21:45;14.55;;;13.30;;
43994;SDS011;51687;52.160;5.298;2023-11-21T12:24:12;14.00;;;12.88;;
43994;SDS011;51687;52.160;5.298;2023-11-21T12:26:41;14.57;;;13.27;;
43994;SDS011;51687;52.160;5.298;2023-11-21T12:29:09;14.00;;;12.85;;
43994;SDS011;51687;52.160;5.298;2023-11-21T12:31:37;14.45;;;13.25;;
43994;SDS011;51687;52.160;5.298;2023-11-21T12:34:04;14.18;;;12.98;;
43994;SDS011;51687;52.160;5.298;2023-11-21T12:36:33;13.52;;;12.43;;
43994;SDS011;51687;52.160;5.298;2023-11-21T12:39:01;12.77;;;11.68;;
43994;SDS011;51687;52.160;5.298;2023-11-21T12:41:29;11.73;;;10.68;;
43994;SDS011;51687;52.160;5.298;2023-11-21T12:43:57;12.25;;;11.18;;
43994;SDS011;51687;52.160;5.298;2023-11-21T12:46:25;12.57;;;11.32;;
43994;SDS011;51687;52.160;5.298;2023-11-21T12:48:56;11.68;;;10.77;;
43994;SDS011;51687;52.160;5.298;2023-11-21T12:51:24;10.45;;;9.43;;
43994;SDS011;51687;52.160;5.298;2023-11-21T12:53:51;9.57;;;8.68;;
43994;SDS011;51687;52.160;5.298;2023-11-21T12:56:21;9.60;;;8.80;;
43994;SDS011;51687;52.160;5.298;2023-11-21T12:58:49;8.90;;;8.13;;
43994;SDS011;51687;52.160;5.298;2023-11-21T13:01:18;8.65;;;8.05;;
43994;SDS011;51687;52.160;5.298;2023-11-21T13:03:48;7.70;;;6.95;;
43994;SDS011;51687;52.160;5.298;2023-11-21T13:06:17;8.05;;;7.25;;
43994;SDS011;51687;52.160;5.298;2023-11-21T13:08:46;7.13;;;6.45;;
43994;SDS011;51687;52.160;5.298;2023-11-21T13:11:13;7.00;;;6.32;;
43994;SDS011;51687;52.160;5.298;2023-11-21T13:13:41;6.57;;;6.03;;
43994;SDS011;51687;52.160;5.298;2023-11-21T13:16:10;7.03;;;6.40;;
43994;SDS011;51687;52.160;5.298;2023-11-21T13:18:37;6.60;;;6.05;;
43994;SDS011;51687;52.160;5.298;2023-11-21T13:21:08;7.32;;;6.63;;
43994;SDS011;51687;52.160;5.298;2023-11-21T13:23:40;5.50;;;4.95;;
43994;SDS011;51687;52.160;5.298;2023-11-21T13:26:10;5.68;;;4.05;;
43994;SDS011;51687;52.160;5.298;2023-11-21T13:31:07;3.60;;;3.30;;
43994;SDS011;51687;52.160;5.298;2023-11-21T13:33:48;3.80;;;3.50;;
43994;SDS011;51687;52.160;5.298;2023-11-21T13:36:23;4.28;;;3.83;;
43994;SDS011;51687;52.160;5.298;2023-11-21T13:38:50;3.88;;;3.58;;
43994;SDS011;51687;52.160;5.298;2023-11-21T13:41:20;4.10;;;3.50;;
43994;SDS011;51687;52.160;5.298;2023-11-21T13:43:57;4.68;;;3.47;;
43994;SDS011;51687;52.160;5.298;2023-11-21T13:46:32;3.70;;;3.40;;
43994;SDS011;51687;52.160;5.298;2023-11-21T13:49:04;3.95;;;3.65;;
43994;SDS011;51687;52.160;5.298;2023-11-21T13:51:36;4.30;;;3.95;;
43994;SDS011;51687;52.160;5.298;2023-11-21T13:54:07;5.25;;;4.55;;
43994;SDS011;51687;52.160;5.298;2023-11-21T13:56:36;5.32;;;4.93;;
43994;SDS011;51687;52.160;5.298;2023-11-21T13:59:05;6.30;;;5.80;;
43994;SDS011;51687;52.160;5.298;2023-11-21T14:01:49;6.28;;;5.78;;
43994;SDS011;51687;52.160;5.298;2023-11-21T14:04:20;9.52;;;7.60;;
43994;SDS011;51687;52.160;5.298;2023-11-21T14:07:11;8.82;;;7.80;;
43994;SDS011;51687;52.160;5.298;2023-11-21T14:09:52;9.52;;;8.63;;
43994;SDS011;51687;52.160;5.298;2023-11-21T14:12:19;10.20;;;9.40;;
43994;SDS011;51687;52.160;5.298;2023-11-21T14:14:46;11.77;;;10.98;;
43994;SDS011;51687;52.160;5.298;2023-11-21T14:17:14;13.25;;;12.25;;
43994;SDS011;51687;52.160;5.298;2023-11-21T14:19:40;13.82;;;12.82;;
43994;SDS011;51687;52.160;5.298;2023-11-21T14:22:10;12.68;;;11.68;;
43994;SDS011;51687;52.160;5.298;2023-11-21T14:24:37;12.82;;;11.88;;
43994;SDS011;51687;52.160;5.298;2023-11-21T14:27:10;13.00;;;11.93;;
43994;SDS011;51687;52.160;5.298;2023-11-21T14:29:37;15.75;;;14.55;;
43994;SDS011;51687;52.160;5.298;2023-11-21T14:32:06;12.13;;;11.07;;
43994;SDS011;51687;52.160;5.298;2023-11-21T14:34:34;14.48;;;13.25;;
43994;SDS011;51687;52.160;5.298;2023-11-21T14:37:01;16.20;;;12.82;;
43994;SDS011;51687;52.160;5.298;2023-11-21T14:39:29;13.68;;;12.68;;
43994;SDS011;51687;52.160;5.298;2023-11-21T14:41:57;13.32;;;12.32;;
43994;SDS011;51687;52.160;5.298;2023-11-21T14:44:24;14.52;;;13.43;;
43994;SDS011;51687;52.160;5.298;2023-11-21T14:46:54;15.20;;;14.07;;
43994;SDS011;51687;52.160;5.298;2023-11-21T14:49:24;15.10;;;13.80;;
43994;SDS011;51687;52.160;5.298;2023-11-21T14:51:54;14.73;;;13.73;;
43994;SDS011;51687;52.160;5.298;2023-11-21T14:54:29;14.73;;;13.52;;
43994;SDS011;51687;52.160;5.298;2023-11-21T14:57:16;15.40;;;14.20;;
43994;SDS011;51687;52.160;5.298;2023-11-21T14:59:48;15.55;;;14.27;;
43994;SDS011;51687;52.160;5.298;2023-11-21T15:02:19;15.88;;;14.57;;
43994;SDS011;51687;52.160;5.298;2023-11-21T15:05:09;15.02;;;13.63;;
43994;SDS011;51687;52.160;5.298;2023-11-21T15:07:41;14.00;;;12.90;;
43994;SDS011;51687;52.160;5.298;2023-11-21T15:10:10;15.73;;;14.35;;
43994;SDS011;51687;52.160;5.298;2023-11-21T15:12:42;15.50;;;14.13;;
43994;SDS011;51687;52.160;5.298;2023-11-21T15:17:38;11.27;;;10.48;;
43994;SDS011;51687;52.160;5.298;2023-11-21T15:20:09;10.60;;;9.88;;
43994;SDS011;51687;52.160;5.298;2023-11-21T15:22:39;10.98;;;10.27;;
43994;SDS011;51687;52.160;5.298;2023-11-21T15:25:06;10.13;;;9.40;;
43994;SDS011;51687;52.160;5.298;2023-11-21T15:27:36;10.38;;;9.52;;